sensor_id;sensor_type;location;lat;lon;timestamp;P1;durP1;ratioP1;P2;durP2;ratioP2
9836;SDS011;4957;51.412;6.724;2024-01-27T00:02:21;14.83;;;3.67;;
9836;SDS011;4957;51.412;6.724;2024-01-27T00:04:47;12.83;;;3.27;;
9836;SDS011;4957;51.412;6.724;2024-01-27T00:07:13;8.10;;;3.20;;
9836;SDS011;4957;51.412;6.724;2024-01-27T00:09:39;9.03;;;4.00;;
9836;SDS011;4957;51.412;6.724;2024-01-27T00:12:06;14.97;;;3.30;;
9836;SDS011;4957;51.412;6.724;2024-01-27T00:14:32;15.13;;;3.67;;
9836;SDS011;4957;51.412;6.724;2024-01-27T00:16:57;16.07;;;3.70;;
9836;SDS011;4957;51.412;6.724;2024-01-27T00:19:23;12.13;;;3.10;;
9836;SDS011;4957;51.412;6.724;2024-01-27T00:21:49;11.83;;;3.33;;
9836;SDS011;4957;51.412;6.724;2024-01-27T00:24:14;13.23;;;3.37;;
9836;SDS011;4957;51.412;6.724;2024-01-27T00:26:41;14.03;;;3.73;;
9836;SDS011;4957;51.412;6.724;2024-01-27T00:29:06;14.43;;;3.33;;
9836;SDS011;4957;51.412;6.724;2024-01-27T00:31:32;11.57;;;3.10;;
9836;SDS011;4957;51.412;6.724;2024-01-27T00:33:58;7.43;;;2.97;;
9836;SDS011;4957;51.412;6.724;2024-01-27T00:36:23;17.87;;;3.87;;
9836;SDS011;4957;51.412;6.724;2024-01-27T00:38:49;10.13;;;3.20;;
9836;SDS011;4957;51.412;6.724;2024-01-27T00:41:18;8.67;;;2.77;;
9836;SDS011;4957;51.412;6.724;2024-01-27T00:43:44;7.27;;;3.03;;
9836;SDS011;4957;51.412;6.724;2024-01-27T00:46:10;18.03;;;3.30;;
9836;SDS011;4957;51.412;6.724;2024-01-27T00:48:36;14.80;;;3.43;;
9836;SDS011;4957;51.412;6.724;2024-01-27T00:51:02;10.43;;;3.67;;
9836;SDS011;4957;51.412;6.724;2024-01-27T00:53:27;11.87;;;3.87;;
9836;SDS011;4957;51.412;6.724;2024-01-27T00:55:53;7.27;;;2.87;;
9836;SDS011;4957;51.412;6.724;2024-01-27T00:58:19;14.33;;;3.33;;
9836;SDS011;4957;51.412;6.724;2024-01-27T01:00:45;12.40;;;3.60;;
9836;SDS011;4957;51.412;6.724;2024-01-27T01:03:10;14.77;;;3.23;;
9836;SDS011;4957;51.412;6.724;2024-01-27T01:05:37;7.30;;;3.27;;
9836;SDS011;4957;51.412;6.724;2024-01-27T01:08:03;8.77;;;3.23;;
9836;SDS011;4957;51.412;6.724;2024-01-27T01:10:31;12.87;;;2.67;;
9836;SDS011;4957;51.412;6.724;2024-01-27T01:12:57;8.97;;;2.93;;
9836;SDS011;4957;51.412;6.724;2024-01-27T01:15:23;9.63;;;3.37;;
9836;SDS011;4957;51.412;6.724;2024-01-27T01:17:48;9.57;;;2.77;;
9836;SDS011;4957;51.412;6.724;2024-01-27T01:20:14;12.57;;;3.50;;
9836;SDS011;4957;51.412;6.724;2024-01-27T01:22:40;7.70;;;2.67;;
9836;SDS011;4957;51.412;6.724;2024-01-27T01:25:06;16.63;;;3.87;;
9836;SDS011;4957;51.412;6.724;2024-01-27T01:27:32;9.47;;;3.40;;
9836;SDS011;4957;51.412;6.724;2024-01-27T01:29:58;12.53;;;3.57;;
9836;SDS011;4957;51.412;6.724;2024-01-27T01:32:23;16.50;;;3.50;;
9836;SDS011;4957;51.412;6.724;2024-01-27T01:34:49;11.63;;;3.63;;
9836;SDS011;4957;51.412;6.724;2024-01-27T01:37:15;11.10;;;3.37;;
9836;SDS011;4957;51.412;6.724;2024-01-27T01:39:40;10.10;;;3.80;;
9836;SDS011;4957;51.412;6.724;2024-01-27T01:42:06;9.53;;;3.00;;
9836;SDS011;4957;51.412;6.724;2024-01-27T01:44:32;8.13;;;2.97;;
9836;SDS011;4957;51.412;6.724;2024-01-27T01:46:58;9.83;;;3.70;;
9836;SDS011;4957;51.412;6.724;2024-01-27T01:49:23;9.30;;;3.80;;
9836;SDS011;4957;51.412;6.724;2024-01-27T01:51:49;13.37;;;3.60;;
9836;SDS011;4957;51.412;6.724;2024-01-27T01:54:15;16.80;;;3.77;;
9836;SDS011;4957;51.412;6.724;2024-01-27T01:56:42;12.10;;;3.50;;
9836;SDS011;4957;51.412;6.724;2024-01-27T01:59:07;9.87;;;3.37;;
9836;SDS011;4957;51.412;6.724;2024-01-27T02:01:33;7.93;;;2.97;;
9836;SDS011;4957;51.412;6.724;2024-01-27T02:03:59;5.67;;;3.00;;
9836;SDS011;4957;51.412;6.724;2024-01-27T02:06:24;12.33;;;3.13;;
9836;SDS011;4957;51.412;6.724;2024-01-27T02:08:50;10.90;;;3.83;;
9836;SDS011;4957;51.412;6.724;2024-01-27T02:11:16;13.17;;;3.50;;
9836;SDS011;4957;51.412;6.724;2024-01-27T02:13:42;11.93;;;3.20;;
9836;SDS011;4957;51.412;6.724;2024-01-27T02:16:08;9.93;;;3.53;;
9836;SDS011;4957;51.412;6.724;2024-01-27T02:18:34;8.00;;;3.13;;
9836;SDS011;4957;51.412;6.724;2024-01-27T02:21:00;8.60;;;2.90;;
9836;SDS011;4957;51.412;6.724;2024-01-27T02:23:25;15.67;;;3.83;;
9836;SDS011;4957;51.412;6.724;2024-01-27T02:25:51;15.27;;;3.83;;
9836;SDS011;4957;51.412;6.724;2024-01-27T02:28:17;11.53;;;4.30;;
9836;SDS011;4957;51.412;6.724;2024-01-27T02:30:43;12.07;;;4.27;;
9836;SDS011;4957;51.412;6.724;2024-01-27T02:33:09;14.27;;;3.97;;
9836;SDS011;4957;51.412;6.724;2024-01-27T02:35:34;11.67;;;3.47;;
9836;SDS011;4957;51.412;6.724;2024-01-27T02:38:00;16.87;;;3.97;;
9836;SDS011;4957;51.412;6.724;2024-01-27T02:40:26;8.17;;;3.50;;
9836;SDS011;4957;51.412;6.724;2024-01-27T02:42:51;9.70;;;3.33;;
9836;SDS011;4957;51.412;6.724;2024-01-27T02:45:17;14.47;;;3.70;;
9836;SDS011;4957;51.412;6.724;2024-01-27T02:47:43;11.53;;;4.00;;
9836;SDS011;4957;51.412;6.724;2024-01-27T02:50:08;11.77;;;3.60;;
9836;SDS011;4957;51.412;6.724;2024-01-27T02:52:34;18.60;;;4.33;;
9836;SDS011;4957;51.412;6.724;2024-01-27T02:55:00;6.10;;;3.33;;
9836;SDS011;4957;51.412;6.724;2024-01-27T02:57:26;15.93;;;3.47;;
9836;SDS011;4957;51.412;6.724;2024-01-27T02:59:52;11.93;;;3.73;;
9836;SDS011;4957;51.412;6.724;2024-01-27T03:02:18;20.43;;;3.33;;
9836;SDS011;4957;51.412;6.724;2024-01-27T03:04:43;11.97;;;3.60;;
9836;SDS011;4957;51.412;6.724;2024-01-27T03:07:09;17.00;;;4.10;;
9836;SDS011;4957;51.412;6.724;2024-01-27T03:09:35;6.77;;;3.47;;
9836;SDS011;4957;51.412;6.724;2024-01-27T03:12:01;12.67;;;3.30;;
9836;SDS011;4957;51.412;6.724;2024-01-27T03:14:27;11.07;;;3.20;;
9836;SDS011;4957;51.412;6.724;2024-01-27T03:16:54;12.83;;;3.53;;
9836;SDS011;4957;51.412;6.724;2024-01-27T03:19:19;7.27;;;3.50;;
9836;SDS011;4957;51.412;6.724;2024-01-27T03:21:45;12.17;;;3.83;;
9836;SDS011;4957;51.412;6.724;2024-01-27T03:24:11;10.53;;;3.53;;
9836;SDS011;4957;51.412;6.724;2024-01-27T03:26:37;12.17;;;4.23;;
9836;SDS011;4957;51.412;6.724;2024-01-27T03:29:02;17.00;;;4.20;;
9836;SDS011;4957;51.412;6.724;2024-01-27T03:31:31;11.43;;;3.83;;
9836;SDS011;4957;51.412;6.724;2024-01-27T03:33:59;7.73;;;3.50;;
9836;SDS011;4957;51.412;6.724;2024-01-27T03:36:25;10.83;;;3.67;;
9836;SDS011;4957;51.412;6.724;2024-01-27T03:38:51;12.33;;;3.37;;
9836;SDS011;4957;51.412;6.724;2024-01-27T03:41:16;10.97;;;3.97;;
9836;SDS011;4957;51.412;6.724;2024-01-27T03:43:42;14.30;;;4.03;;
9836;SDS011;4957;51.412;6.724;2024-01-27T03:46:08;17.43;;;4.30;;
9836;SDS011;4957;51.412;6.724;2024-01-27T03:48:33;14.43;;;3.70;;
9836;SDS011;4957;51.412;6.724;2024-01-27T03:51:02;9.63;;;4.37;;
9836;SDS011;4957;51.412;6.724;2024-01-27T03:53:28;10.60;;;3.43;;
9836;SDS011;4957;51.412;6.724;2024-01-27T03:55:54;19.73;;;4.10;;
9836;SDS011;4957;51.412;6.724;2024-01-27T03:58:23;9.03;;;4.13;;
9836;SDS011;4957;51.412;6.724;2024-01-27T04:00:49;9.57;;;4.20;;
9836;SDS011;4957;51.412;6.724;2024-01-27T04:03:15;15.70;;;3.40;;
9836;SDS011;4957;51.412;6.724;2024-01-27T04:05:40;6.17;;;3.00;;
9836;SDS011;4957;51.412;6.724;2024-01-27T04:08:06;11.10;;;3.80;;
9836;SDS011;4957;51.412;6.724;2024-01-27T04:10:32;9.57;;;4.27;;
9836;SDS011;4957;51.412;6.724;2024-01-27T04:12:57;15.23;;;4.17;;
9836;SDS011;4957;51.412;6.724;2024-01-27T04:15:23;9.37;;;4.37;;
9836;SDS011;4957;51.412;6.724;2024-01-27T04:17:49;16.20;;;4.47;;
9836;SDS011;4957;51.412;6.724;2024-01-27T04:20:14;9.73;;;4.00;;
9836;SDS011;4957;51.412;6.724;2024-01-27T04:22:40;13.90;;;5.00;;
9836;SDS011;4957;51.412;6.724;2024-01-27T04:25:06;12.93;;;4.67;;
9836;SDS011;4957;51.412;6.724;2024-01-27T04:27:32;9.70;;;4.97;;
9836;SDS011;4957;51.412;6.724;2024-01-27T04:30:07;14.73;;;4.73;;
9836;SDS011;4957;51.412;6.724;2024-01-27T04:32:34;10.93;;;4.60;;
9836;SDS011;4957;51.412;6.724;2024-01-27T04:35:01;13.13;;;5.13;;
9836;SDS011;4957;51.412;6.724;2024-01-27T04:37:26;14.73;;;4.77;;
9836;SDS011;4957;51.412;6.724;2024-01-27T04:39:52;11.53;;;4.57;;
9836;SDS011;4957;51.412;6.724;2024-01-27T04:42:18;8.07;;;4.23;;
9836;SDS011;4957;51.412;6.724;2024-01-27T04:44:43;14.17;;;4.50;;
9836;SDS011;4957;51.412;6.724;2024-01-27T04:47:09;11.93;;;4.70;;
9836;SDS011;4957;51.412;6.724;2024-01-27T04:49:35;8.93;;;4.30;;
9836;SDS011;4957;51.412;6.724;2024-01-27T04:52:00;16.43;;;4.90;;
9836;SDS011;4957;51.412;6.724;2024-01-27T04:54:26;9.73;;;4.30;;
9836;SDS011;4957;51.412;6.724;2024-01-27T04:56:52;15.83;;;4.67;;
9836;SDS011;4957;51.412;6.724;2024-01-27T04:59:18;12.33;;;4.57;;
9836;SDS011;4957;51.412;6.724;2024-01-27T05:01:46;15.00;;;4.23;;
9836;SDS011;4957;51.412;6.724;2024-01-27T05:04:12;10.37;;;4.13;;
9836;SDS011;4957;51.412;6.724;2024-01-27T05:06:38;14.93;;;5.30;;
9836;SDS011;4957;51.412;6.724;2024-01-27T05:09:10;10.27;;;4.60;;
9836;SDS011;4957;51.412;6.724;2024-01-27T05:11:37;14.43;;;4.37;;
9836;SDS011;4957;51.412;6.724;2024-01-27T05:14:03;17.60;;;4.90;;
9836;SDS011;4957;51.412;6.724;2024-01-27T05:16:29;10.53;;;4.50;;
9836;SDS011;4957;51.412;6.724;2024-01-27T05:18:55;13.87;;;4.90;;
9836;SDS011;4957;51.412;6.724;2024-01-27T05:21:21;12.80;;;4.67;;
9836;SDS011;4957;51.412;6.724;2024-01-27T05:23:47;13.10;;;5.10;;
9836;SDS011;4957;51.412;6.724;2024-01-27T05:26:13;11.83;;;5.10;;
9836;SDS011;4957;51.412;6.724;2024-01-27T05:28:39;12.83;;;4.37;;
9836;SDS011;4957;51.412;6.724;2024-01-27T05:31:07;15.03;;;4.50;;
9836;SDS011;4957;51.412;6.724;2024-01-27T05:33:33;12.30;;;4.77;;
9836;SDS011;4957;51.412;6.724;2024-01-27T05:36:00;23.77;;;5.03;;
9836;SDS011;4957;51.412;6.724;2024-01-27T05:38:25;19.80;;;4.70;;
9836;SDS011;4957;51.412;6.724;2024-01-27T05:40:53;19.00;;;4.90;;
9836;SDS011;4957;51.412;6.724;2024-01-27T05:43:19;13.30;;;5.10;;
9836;SDS011;4957;51.412;6.724;2024-01-27T05:45:45;15.17;;;4.77;;
9836;SDS011;4957;51.412;6.724;2024-01-27T05:48:11;14.40;;;4.63;;
9836;SDS011;4957;51.412;6.724;2024-01-27T05:50:37;16.63;;;4.60;;
9836;SDS011;4957;51.412;6.724;2024-01-27T05:53:06;16.27;;;5.33;;
9836;SDS011;4957;51.412;6.724;2024-01-27T05:55:32;11.73;;;4.77;;
9836;SDS011;4957;51.412;6.724;2024-01-27T05:57:59;13.67;;;4.77;;
9836;SDS011;4957;51.412;6.724;2024-01-27T06:00:24;19.00;;;4.47;;
9836;SDS011;4957;51.412;6.724;2024-01-27T06:02:50;12.03;;;3.73;;
9836;SDS011;4957;51.412;6.724;2024-01-27T06:05:16;16.13;;;4.57;;
9836;SDS011;4957;51.412;6.724;2024-01-27T06:07:42;17.60;;;4.93;;
9836;SDS011;4957;51.412;6.724;2024-01-27T06:10:08;14.87;;;4.60;;
9836;SDS011;4957;51.412;6.724;2024-01-27T06:12:35;13.80;;;4.37;;
9836;SDS011;4957;51.412;6.724;2024-01-27T06:15:01;15.17;;;4.37;;
9836;SDS011;4957;51.412;6.724;2024-01-27T06:17:28;17.70;;;5.37;;
9836;SDS011;4957;51.412;6.724;2024-01-27T06:19:54;14.50;;;4.57;;
9836;SDS011;4957;51.412;6.724;2024-01-27T06:22:19;9.53;;;4.83;;
9836;SDS011;4957;51.412;6.724;2024-01-27T06:24:45;11.43;;;4.10;;
9836;SDS011;4957;51.412;6.724;2024-01-27T06:27:11;11.03;;;4.50;;
9836;SDS011;4957;51.412;6.724;2024-01-27T06:29:37;25.07;;;4.63;;
9836;SDS011;4957;51.412;6.724;2024-01-27T06:32:03;12.87;;;4.53;;
9836;SDS011;4957;51.412;6.724;2024-01-27T06:34:29;12.83;;;5.30;;
9836;SDS011;4957;51.412;6.724;2024-01-27T06:36:56;11.13;;;4.07;;
9836;SDS011;4957;51.412;6.724;2024-01-27T06:39:22;13.00;;;5.07;;
9836;SDS011;4957;51.412;6.724;2024-01-27T06:41:48;19.73;;;5.00;;
9836;SDS011;4957;51.412;6.724;2024-01-27T06:44:13;13.43;;;4.63;;
9836;SDS011;4957;51.412;6.724;2024-01-27T06:46:39;12.20;;;4.73;;
9836;SDS011;4957;51.412;6.724;2024-01-27T06:49:05;13.80;;;4.90;;
9836;SDS011;4957;51.412;6.724;2024-01-27T06:51:30;17.27;;;5.60;;
9836;SDS011;4957;51.412;6.724;2024-01-27T06:53:56;20.03;;;5.70;;
9836;SDS011;4957;51.412;6.724;2024-01-27T06:56:22;11.93;;;4.83;;
9836;SDS011;4957;51.412;6.724;2024-01-27T06:58:47;11.73;;;5.03;;
9836;SDS011;4957;51.412;6.724;2024-01-27T07:01:13;10.17;;;5.00;;
9836;SDS011;4957;51.412;6.724;2024-01-27T07:03:39;15.53;;;4.93;;
9836;SDS011;4957;51.412;6.724;2024-01-27T07:06:05;10.10;;;4.57;;
9836;SDS011;4957;51.412;6.724;2024-01-27T07:08:31;15.40;;;4.77;;
9836;SDS011;4957;51.412;6.724;2024-01-27T07:10:57;11.67;;;5.70;;
9836;SDS011;4957;51.412;6.724;2024-01-27T07:13:23;13.90;;;5.27;;
9836;SDS011;4957;51.412;6.724;2024-01-27T07:15:49;14.93;;;4.63;;
9836;SDS011;4957;51.412;6.724;2024-01-27T07:18:14;12.23;;;5.47;;
9836;SDS011;4957;51.412;6.724;2024-01-27T07:20:42;14.97;;;5.03;;
9836;SDS011;4957;51.412;6.724;2024-01-27T07:23:08;9.93;;;5.00;;
9836;SDS011;4957;51.412;6.724;2024-01-27T07:25:33;15.53;;;4.50;;
9836;SDS011;4957;51.412;6.724;2024-01-27T07:27:59;14.10;;;4.83;;
9836;SDS011;4957;51.412;6.724;2024-01-27T07:30:25;12.93;;;5.03;;
9836;SDS011;4957;51.412;6.724;2024-01-27T07:32:50;16.50;;;5.37;;
9836;SDS011;4957;51.412;6.724;2024-01-27T07:35:16;17.30;;;6.13;;
9836;SDS011;4957;51.412;6.724;2024-01-27T07:37:42;19.63;;;5.23;;
9836;SDS011;4957;51.412;6.724;2024-01-27T07:40:08;22.23;;;5.27;;
9836;SDS011;4957;51.412;6.724;2024-01-27T07:42:34;17.03;;;4.93;;
9836;SDS011;4957;51.412;6.724;2024-01-27T07:45:00;18.83;;;5.80;;
9836;SDS011;4957;51.412;6.724;2024-01-27T07:47:26;13.37;;;5.17;;
9836;SDS011;4957;51.412;6.724;2024-01-27T07:49:52;13.57;;;4.77;;
9836;SDS011;4957;51.412;6.724;2024-01-27T07:52:19;16.27;;;4.77;;
9836;SDS011;4957;51.412;6.724;2024-01-27T07:54:45;12.63;;;5.23;;
9836;SDS011;4957;51.412;6.724;2024-01-27T07:57:10;17.20;;;5.57;;
9836;SDS011;4957;51.412;6.724;2024-01-27T07:59:37;14.33;;;5.20;;
9836;SDS011;4957;51.412;6.724;2024-01-27T08:02:03;14.30;;;5.07;;
9836;SDS011;4957;51.412;6.724;2024-01-27T08:04:29;14.27;;;4.70;;
9836;SDS011;4957;51.412;6.724;2024-01-27T08:06:55;16.97;;;5.23;;
9836;SDS011;4957;51.412;6.724;2024-01-27T08:09:20;14.40;;;5.53;;
9836;SDS011;4957;51.412;6.724;2024-01-27T08:11:46;14.83;;;5.33;;
9836;SDS011;4957;51.412;6.724;2024-01-27T08:14:16;15.93;;;5.20;;
9836;SDS011;4957;51.412;6.724;2024-01-27T08:16:42;15.80;;;5.77;;
9836;SDS011;4957;51.412;6.724;2024-01-27T08:19:08;21.67;;;6.23;;
9836;SDS011;4957;51.412;6.724;2024-01-27T08:21:34;16.20;;;5.67;;
9836;SDS011;4957;51.412;6.724;2024-01-27T08:24:00;24.37;;;5.53;;
9836;SDS011;4957;51.412;6.724;2024-01-27T08:26:25;17.53;;;6.20;;
9836;SDS011;4957;51.412;6.724;2024-01-27T08:28:51;21.40;;;6.37;;
9836;SDS011;4957;51.412;6.724;2024-01-27T08:31:17;16.37;;;5.23;;
9836;SDS011;4957;51.412;6.724;2024-01-27T08:33:43;21.33;;;5.57;;
9836;SDS011;4957;51.412;6.724;2024-01-27T08:36:12;23.00;;;6.57;;
9836;SDS011;4957;51.412;6.724;2024-01-27T08:38:39;17.93;;;5.40;;
9836;SDS011;4957;51.412;6.724;2024-01-27T08:41:05;29.70;;;6.67;;
9836;SDS011;4957;51.412;6.724;2024-01-27T08:43:30;28.43;;;6.83;;
9836;SDS011;4957;51.412;6.724;2024-01-27T08:45:56;25.23;;;6.87;;
9836;SDS011;4957;51.412;6.724;2024-01-27T08:48:22;21.70;;;7.70;;
9836;SDS011;4957;51.412;6.724;2024-01-27T08:50:49;29.83;;;7.07;;
9836;SDS011;4957;51.412;6.724;2024-01-27T08:53:14;28.37;;;6.57;;
9836;SDS011;4957;51.412;6.724;2024-01-27T08:55:40;29.53;;;8.13;;
9836;SDS011;4957;51.412;6.724;2024-01-27T08:58:06;29.30;;;7.27;;
9836;SDS011;4957;51.412;6.724;2024-01-27T09:00:31;32.47;;;8.47;;
9836;SDS011;4957;51.412;6.724;2024-01-27T09:02:57;24.77;;;8.17;;
9836;SDS011;4957;51.412;6.724;2024-01-27T09:05:23;19.37;;;7.20;;
9836;SDS011;4957;51.412;6.724;2024-01-27T09:07:49;26.70;;;6.87;;
9836;SDS011;4957;51.412;6.724;2024-01-27T09:10:14;32.83;;;7.37;;
9836;SDS011;4957;51.412;6.724;2024-01-27T09:12:41;22.33;;;7.07;;
9836;SDS011;4957;51.412;6.724;2024-01-27T09:15:07;20.87;;;8.53;;
9836;SDS011;4957;51.412;6.724;2024-01-27T09:17:33;33.20;;;7.40;;
9836;SDS011;4957;51.412;6.724;2024-01-27T09:19:59;33.27;;;7.30;;
9836;SDS011;4957;51.412;6.724;2024-01-27T09:22:24;22.00;;;6.87;;
9836;SDS011;4957;51.412;6.724;2024-01-27T09:24:51;23.13;;;6.93;;
9836;SDS011;4957;51.412;6.724;2024-01-27T09:27:17;38.97;;;9.77;;
9836;SDS011;4957;51.412;6.724;2024-01-27T09:29:43;39.57;;;9.57;;
9836;SDS011;4957;51.412;6.724;2024-01-27T09:32:08;40.20;;;9.10;;
9836;SDS011;4957;51.412;6.724;2024-01-27T09:34:34;40.70;;;8.47;;
9836;SDS011;4957;51.412;6.724;2024-01-27T09:37:00;43.80;;;10.10;;
9836;SDS011;4957;51.412;6.724;2024-01-27T09:39:26;40.47;;;10.33;;
9836;SDS011;4957;51.412;6.724;2024-01-27T09:41:52;40.77;;;11.80;;
9836;SDS011;4957;51.412;6.724;2024-01-27T09:44:20;38.50;;;10.07;;
9836;SDS011;4957;51.412;6.724;2024-01-27T09:46:46;48.57;;;13.07;;
9836;SDS011;4957;51.412;6.724;2024-01-27T09:49:13;34.40;;;11.17;;
9836;SDS011;4957;51.412;6.724;2024-01-27T09:51:42;46.90;;;11.20;;
9836;SDS011;4957;51.412;6.724;2024-01-27T09:54:08;42.93;;;11.97;;
9836;SDS011;4957;51.412;6.724;2024-01-27T09:56:34;39.93;;;10.87;;
9836;SDS011;4957;51.412;6.724;2024-01-27T09:59:00;40.40;;;12.70;;
9836;SDS011;4957;51.412;6.724;2024-01-27T10:01:26;41.97;;;12.40;;
9836;SDS011;4957;51.412;6.724;2024-01-27T10:03:54;44.30;;;12.93;;
9836;SDS011;4957;51.412;6.724;2024-01-27T10:06:20;56.17;;;12.73;;
9836;SDS011;4957;51.412;6.724;2024-01-27T10:08:55;40.27;;;11.87;;
9836;SDS011;4957;51.412;6.724;2024-01-27T10:11:22;41.77;;;12.93;;
9836;SDS011;4957;51.412;6.724;2024-01-27T10:13:55;44.30;;;11.67;;
9836;SDS011;4957;51.412;6.724;2024-01-27T10:16:22;42.00;;;11.17;;
9836;SDS011;4957;51.412;6.724;2024-01-27T10:18:58;32.23;;;9.90;;
9836;SDS011;4957;51.412;6.724;2024-01-27T10:21:25;44.50;;;11.10;;
9836;SDS011;4957;51.412;6.724;2024-01-27T10:23:52;48.83;;;11.93;;
9836;SDS011;4957;51.412;6.724;2024-01-27T10:26:18;51.50;;;13.90;;
9836;SDS011;4957;51.412;6.724;2024-01-27T10:28:51;44.83;;;13.60;;
9836;SDS011;4957;51.412;6.724;2024-01-27T10:31:25;40.60;;;12.63;;
9836;SDS011;4957;51.412;6.724;2024-01-27T10:33:54;51.10;;;13.53;;
9836;SDS011;4957;51.412;6.724;2024-01-27T10:36:21;48.83;;;11.73;;
9836;SDS011;4957;51.412;6.724;2024-01-27T10:38:47;45.60;;;11.53;;
9836;SDS011;4957;51.412;6.724;2024-01-27T10:41:17;43.13;;;11.70;;
9836;SDS011;4957;51.412;6.724;2024-01-27T10:43:50;43.67;;;11.97;;
9836;SDS011;4957;51.412;6.724;2024-01-27T10:46:18;40.70;;;12.20;;
9836;SDS011;4957;51.412;6.724;2024-01-27T10:48:51;50.27;;;12.07;;
9836;SDS011;4957;51.412;6.724;2024-01-27T10:51:18;53.83;;;11.87;;
9836;SDS011;4957;51.412;6.724;2024-01-27T10:53:54;42.17;;;12.10;;
9836;SDS011;4957;51.412;6.724;2024-01-27T10:56:25;47.53;;;11.67;;
9836;SDS011;4957;51.412;6.724;2024-01-27T10:58:54;43.33;;;13.13;;
9836;SDS011;4957;51.412;6.724;2024-01-27T11:01:21;45.87;;;14.83;;
9836;SDS011;4957;51.412;6.724;2024-01-27T11:03:48;53.90;;;15.17;;
9836;SDS011;4957;51.412;6.724;2024-01-27T11:06:14;43.90;;;15.17;;
9836;SDS011;4957;51.412;6.724;2024-01-27T11:08:42;53.60;;;16.43;;
9836;SDS011;4957;51.412;6.724;2024-01-27T11:11:09;53.57;;;19.03;;
9836;SDS011;4957;51.412;6.724;2024-01-27T11:13:35;53.17;;;20.73;;
9836;SDS011;4957;51.412;6.724;2024-01-27T11:16:01;71.53;;;21.63;;
9836;SDS011;4957;51.412;6.724;2024-01-27T11:18:27;63.17;;;23.17;;
9836;SDS011;4957;51.412;6.724;2024-01-27T11:20:55;73.60;;;21.77;;
9836;SDS011;4957;51.412;6.724;2024-01-27T11:23:30;69.03;;;21.23;;
9836;SDS011;4957;51.412;6.724;2024-01-27T11:26:07;66.47;;;21.27;;
9836;SDS011;4957;51.412;6.724;2024-01-27T11:28:33;58.73;;;21.23;;
9836;SDS011;4957;51.412;6.724;2024-01-27T11:31:07;82.10;;;24.30;;
9836;SDS011;4957;51.412;6.724;2024-01-27T11:33:39;72.40;;;24.10;;
9836;SDS011;4957;51.412;6.724;2024-01-27T11:36:07;62.00;;;22.07;;
9836;SDS011;4957;51.412;6.724;2024-01-27T11:38:33;62.00;;;21.23;;
9836;SDS011;4957;51.412;6.724;2024-01-27T11:41:02;68.37;;;20.30;;
9836;SDS011;4957;51.412;6.724;2024-01-27T11:43:28;63.53;;;19.77;;
9836;SDS011;4957;51.412;6.724;2024-01-27T11:46:00;47.40;;;16.27;;
9836;SDS011;4957;51.412;6.724;2024-01-27T11:48:26;56.20;;;18.00;;
9836;SDS011;4957;51.412;6.724;2024-01-27T11:53:35;45.90;;;14.37;;
9836;SDS011;4957;51.412;6.724;2024-01-27T11:56:01;52.87;;;15.60;;
9836;SDS011;4957;51.412;6.724;2024-01-27T11:58:28;42.07;;;13.60;;
9836;SDS011;4957;51.412;6.724;2024-01-27T12:00:55;48.87;;;13.87;;
9836;SDS011;4957;51.412;6.724;2024-01-27T12:03:24;57.03;;;15.27;;
9836;SDS011;4957;51.412;6.724;2024-01-27T12:05:50;56.13;;;13.90;;
9836;SDS011;4957;51.412;6.724;2024-01-27T12:08:16;46.60;;;12.70;;
9836;SDS011;4957;51.412;6.724;2024-01-27T12:10:42;36.77;;;10.40;;
9836;SDS011;4957;51.412;6.724;2024-01-27T12:13:07;36.50;;;9.80;;
9836;SDS011;4957;51.412;6.724;2024-01-27T12:15:33;28.83;;;9.60;;
9836;SDS011;4957;51.412;6.724;2024-01-27T12:17:59;34.43;;;10.10;;
9836;SDS011;4957;51.412;6.724;2024-01-27T12:20:25;30.67;;;10.57;;
9836;SDS011;4957;51.412;6.724;2024-01-27T12:23:01;38.57;;;9.67;;
9836;SDS011;4957;51.412;6.724;2024-01-27T12:25:28;23.07;;;8.50;;
9836;SDS011;4957;51.412;6.724;2024-01-27T12:27:53;26.80;;;8.80;;
9836;SDS011;4957;51.412;6.724;2024-01-27T12:30:20;34.00;;;9.20;;
9836;SDS011;4957;51.412;6.724;2024-01-27T12:32:46;25.20;;;7.83;;
9836;SDS011;4957;51.412;6.724;2024-01-27T12:35:13;30.33;;;8.13;;
9836;SDS011;4957;51.412;6.724;2024-01-27T12:37:38;30.10;;;7.37;;
9836;SDS011;4957;51.412;6.724;2024-01-27T12:40:22;24.50;;;8.27;;
9836;SDS011;4957;51.412;6.724;2024-01-27T12:42:48;29.47;;;8.60;;
9836;SDS011;4957;51.412;6.724;2024-01-27T12:45:14;29.07;;;10.13;;
9836;SDS011;4957;51.412;6.724;2024-01-27T12:47:40;33.93;;;10.83;;
9836;SDS011;4957;51.412;6.724;2024-01-27T12:50:07;31.60;;;9.40;;
9836;SDS011;4957;51.412;6.724;2024-01-27T12:52:33;25.87;;;9.97;;
9836;SDS011;4957;51.412;6.724;2024-01-27T12:54:59;27.37;;;10.17;;
9836;SDS011;4957;51.412;6.724;2024-01-27T12:57:24;25.60;;;9.80;;
9836;SDS011;4957;51.412;6.724;2024-01-27T12:59:50;19.47;;;8.50;;
9836;SDS011;4957;51.412;6.724;2024-01-27T13:02:16;22.47;;;6.20;;
9836;SDS011;4957;51.412;6.724;2024-01-27T13:04:42;19.13;;;5.60;;
9836;SDS011;4957;51.412;6.724;2024-01-27T13:07:08;17.20;;;5.60;;
9836;SDS011;4957;51.412;6.724;2024-01-27T13:09:35;18.70;;;4.40;;
9836;SDS011;4957;51.412;6.724;2024-01-27T13:12:02;10.43;;;3.70;;
9836;SDS011;4957;51.412;6.724;2024-01-27T13:14:28;14.17;;;3.33;;
9836;SDS011;4957;51.412;6.724;2024-01-27T13:16:54;10.97;;;3.80;;
9836;SDS011;4957;51.412;6.724;2024-01-27T13:19:21;15.10;;;4.13;;
9836;SDS011;4957;51.412;6.724;2024-01-27T13:21:47;12.57;;;3.83;;
9836;SDS011;4957;51.412;6.724;2024-01-27T13:24:13;19.00;;;3.87;;
9836;SDS011;4957;51.412;6.724;2024-01-27T13:26:38;8.43;;;2.90;;
9836;SDS011;4957;51.412;6.724;2024-01-27T13:29:04;10.43;;;3.13;;
9836;SDS011;4957;51.412;6.724;2024-01-27T13:31:30;10.63;;;3.50;;
9836;SDS011;4957;51.412;6.724;2024-01-27T13:33:56;15.77;;;4.50;;
9836;SDS011;4957;51.412;6.724;2024-01-27T13:36:22;15.90;;;3.53;;
9836;SDS011;4957;51.412;6.724;2024-01-27T13:38:48;8.70;;;3.13;;
9836;SDS011;4957;51.412;6.724;2024-01-27T13:41:14;15.60;;;2.87;;
9836;SDS011;4957;51.412;6.724;2024-01-27T13:43:40;9.23;;;3.00;;
9836;SDS011;4957;51.412;6.724;2024-01-27T13:46:06;11.90;;;3.63;;
9836;SDS011;4957;51.412;6.724;2024-01-27T13:48:32;8.43;;;2.97;;
9836;SDS011;4957;51.412;6.724;2024-01-27T13:50:58;15.23;;;3.10;;
9836;SDS011;4957;51.412;6.724;2024-01-27T13:53:24;7.27;;;3.00;;
9836;SDS011;4957;51.412;6.724;2024-01-27T13:55:49;7.60;;;2.87;;
9836;SDS011;4957;51.412;6.724;2024-01-27T13:58:16;13.23;;;2.97;;
9836;SDS011;4957;51.412;6.724;2024-01-27T14:00:45;8.87;;;2.67;;
9836;SDS011;4957;51.412;6.724;2024-01-27T14:03:11;11.33;;;3.30;;
9836;SDS011;4957;51.412;6.724;2024-01-27T14:05:38;12.83;;;3.17;;
9836;SDS011;4957;51.412;6.724;2024-01-27T14:08:04;11.80;;;3.07;;
9836;SDS011;4957;51.412;6.724;2024-01-27T14:10:32;7.70;;;2.60;;
9836;SDS011;4957;51.412;6.724;2024-01-27T14:12:58;11.33;;;3.00;;
9836;SDS011;4957;51.412;6.724;2024-01-27T14:15:24;10.07;;;2.43;;
9836;SDS011;4957;51.412;6.724;2024-01-27T14:17:49;9.50;;;2.93;;
9836;SDS011;4957;51.412;6.724;2024-01-27T14:20:15;15.03;;;3.13;;
9836;SDS011;4957;51.412;6.724;2024-01-27T14:22:41;10.60;;;2.90;;
9836;SDS011;4957;51.412;6.724;2024-01-27T14:25:07;9.13;;;2.30;;
9836;SDS011;4957;51.412;6.724;2024-01-27T14:27:33;8.83;;;2.07;;
9836;SDS011;4957;51.412;6.724;2024-01-27T14:30:00;8.47;;;2.43;;
9836;SDS011;4957;51.412;6.724;2024-01-27T14:32:26;12.27;;;2.50;;
9836;SDS011;4957;51.412;6.724;2024-01-27T14:34:52;10.77;;;2.80;;
9836;SDS011;4957;51.412;6.724;2024-01-27T14:37:18;13.90;;;2.90;;
9836;SDS011;4957;51.412;6.724;2024-01-27T14:39:47;11.20;;;3.37;;
9836;SDS011;4957;51.412;6.724;2024-01-27T14:42:13;12.17;;;2.27;;
9836;SDS011;4957;51.412;6.724;2024-01-27T14:44:39;8.73;;;2.40;;
9836;SDS011;4957;51.412;6.724;2024-01-27T14:47:05;12.43;;;2.40;;
9836;SDS011;4957;51.412;6.724;2024-01-27T14:49:33;15.90;;;2.63;;
9836;SDS011;4957;51.412;6.724;2024-01-27T14:51:59;11.37;;;2.83;;
9836;SDS011;4957;51.412;6.724;2024-01-27T14:54:24;7.00;;;2.30;;
9836;SDS011;4957;51.412;6.724;2024-01-27T14:56:50;6.47;;;2.40;;
9836;SDS011;4957;51.412;6.724;2024-01-27T14:59:15;10.03;;;2.60;;